Hg 306 Tobis — OUPS — position and weather

sailwx.info

Track history (hours):
 
Tides and Currents Weather Stations Pressure Air Temp Water Temp Dewpoint Dewpoint Depression Visibility Wind Speed Wind Dir Waves Ship Positions

Hg 306 Tobis

Last reported at 2016-Aug-28 02:32 UTC. Time now 2016-Aug-28 16:43 UTC.
Position N 60°40' E 001°41'.

Length 40 m; draft 6.4 m.

Type: Fishing. MMSI: 219013001.

Date/timePositionNaut miles runAvg speedWind from/ knotsBaromVisibWave heightAir tempDewpointWater temp
2016-Aug-28 02:32N 60°40' E 001°41'2 0.3
2016-Aug-27 17:14N 60°41' E 001°37'6 0.4
2016-Aug-27 04:10N 60°36' E 001°43'1 2.2
2016-Aug-27 03:30N 60°35' E 001°41'3 2.9
2016-Aug-27 02:33N 60°35' E 001°36'0 0.0
2016-Aug-26 11:33N 60°35' E 001°35'3 2.9
2016-Aug-26 10:32N 60°38' E 001°34'130 2.9
2016-Aug-24 14:19N 59°08' E 004°40'810.1
2016-Aug-24 13:33N 59°02' E 004°49'1111.4
2016-Aug-24 12:33N 58°52' E 005°00'1111.4
2016-Aug-24 11:33N 58°42' E 005°11'1211.6
2016-Aug-24 10:33N 58°33' E 005°25'1211.7
2016-Aug-24 09:33N 58°25' E 005°40'1311.4
2016-Aug-24 08:26N 58°15' E 005°56'1111.9
2016-Aug-24 07:33N 58°07' E 006°09'1111.2
2016-Aug-24 06:33N 57°60' E 006°25'  
Track history (hours):
 
Tides and Currents Weather Stations Pressure Air Temp Water Temp Dewpoint Dewpoint Depression Visibility Wind Speed Wind Dir Waves Ship Positions

Hg 306 Tobis

Last reported at 2016-Aug-28 02:32 UTC. Time now 2016-Aug-28 16:43 UTC.
Position N 60°40' E 001°41'.

Length 40 m; draft 6.4 m.

Type: Fishing. MMSI: 219013001.

Date/timePositionNaut miles runAvg speedWind from/ knotsBaromVisibWave heightAir tempDewpointWater temp
2016-Aug-28 02:32N 60°40' E 001°41'2 0.3
2016-Aug-27 17:14N 60°41' E 001°37'6 0.4
2016-Aug-27 04:10N 60°36' E 001°43'1 2.2
2016-Aug-27 03:30N 60°35' E 001°41'3 2.9
2016-Aug-27 02:33N 60°35' E 001°36'0 0.0
2016-Aug-26 11:33N 60°35' E 001°35'3 2.9
2016-Aug-26 10:32N 60°38' E 001°34'130 2.9
2016-Aug-24 14:19N 59°08' E 004°40'810.1
2016-Aug-24 13:33N 59°02' E 004°49'1111.4
2016-Aug-24 12:33N 58°52' E 005°00'1111.4
2016-Aug-24 11:33N 58°42' E 005°11'1211.6
2016-Aug-24 10:33N 58°33' E 005°25'1211.7
2016-Aug-24 09:33N 58°25' E 005°40'1311.4
2016-Aug-24 08:26N 58°15' E 005°56'1111.9
2016-Aug-24 07:33N 58°07' E 006°09'1111.2
2016-Aug-24 06:33N 57°60' E 006°25'  

Dump ship's entire track history